Lawhon, Louisiana
Current Conditions -  °F | °C
As of 9:58 AM on Thursday 29 Jan 2015 (Local Time) from KBAD Reporting Station
Clear Clear  
Wind Chill: 63°   Ceiling: Unl
Heat Index: 63°   Visibility: 10mi
Dew Point: 54°   Wind: 9mph
Humidity: 72%   Direction: 260°W
Pressure: 30.2"   Gusts: NA
Location:  32.3153°N, 93.2953°W
Report Text: KBAD 291558Z AUTO 26008KT 10SM CLR 17/12 A3020 RMK AO2 SLP229 T01710120
Loading
Personal Weather Stations






























Interactive Weather Map New forecast layout! Learn more

10-Day Weather Forecast

Advertisements
Track Severe Weather on mobile